Zim Rio Grande — 9HNV9 — position and weather

sailwx.info

Track history (hours):
 
Tides and Currents Weather Stations Pressure Air Temp Water Temp Dewpoint Dewpoint Depression Visibility Wind Speed Wind Dir Waves Ship Positions

Zim Rio Grande

Last reported at 2016-Dec-01 04:27 UTC. Time now 2016-Dec-02 22:17 UTC.
Position N 31°51' E 034°38'.

Length 260 m; draft 12.1 m.

Type: Cargo ship. MMSI: 249253000.

Date/timePositionNaut miles runAvg speedWind from/ knotsBaromVisibWave heightAir tempDewpointWater temp
2016-Dec-01 04:27N 31°51' E 034°38'0 0.0
2016-Nov-30 04:15N 31°51' E 034°38'1 1.4
2016-Nov-30 03:33N 31°52' E 034°38'11 0.5
2016-Nov-29 08:07N 32°00' E 034°30'712.5
2016-Nov-29 07:33N 32°07' E 034°33'1212.3
2016-Nov-29 06:34N 32°19' E 034°37'1212.1
2016-Nov-29 05:33N 32°30' E 034°41'1212.3
2016-Nov-29 04:33N 32°42' E 034°45'1212.2
2016-Nov-29 03:34N 32°54' E 034°49'1111.2
2016-Nov-29 02:33N 32°50' E 035°01'1 1.2
2016-Nov-29 01:32N 32°49' E 035°01'0 0.0
2016-Nov-29 00:32N 32°49' E 035°01'0 0.0
2016-Nov-28 23:32N 32°49' E 035°01'0 0.0
2016-Nov-28 22:32N 32°49' E 035°01'0 0.0
2016-Nov-28 21:32N 32°49' E 035°01'0 0.0
2016-Nov-28 20:32N 32°49' E 035°01'0 0.0
2016-Nov-28 19:32N 32°49' E 035°01'0 0.0
2016-Nov-28 18:32N 32°49' E 035°01'0 0.0
2016-Nov-28 17:32N 32°49' E 035°01'0 0.0
2016-Nov-28 16:32N 32°49' E 035°01'0 0.0
2016-Nov-28 15:32N 32°49' E 035°01'0 0.0
2016-Nov-28 14:32N 32°49' E 035°01'0 0.0
2016-Nov-28 13:32N 32°49' E 035°01'0 0.0
2016-Nov-28 12:32N 32°49' E 035°01'0 0.0
2016-Nov-28 11:32N 32°49' E 035°01'0 0.0
2016-Nov-28 10:32N 32°49' E 035°01'0 0.0
2016-Nov-28 09:32N 32°49' E 035°01'0 0.0
2016-Nov-28 08:32N 32°49' E 035°01'0 0.0
2016-Nov-28 07:32N 32°49' E 035°01'0 0.0
2016-Nov-28 06:32N 32°49' E 035°01'0 0.3
2016-Nov-28 05:33N 32°49' E 035°01'2 2.2
2016-Nov-28 04:33N 32°51' E 034°60'10 9.9
2016-Nov-28 03:33N 32°53' E 034°48'  
Track history (hours):
 
Tides and Currents Weather Stations Pressure Air Temp Water Temp Dewpoint Dewpoint Depression Visibility Wind Speed Wind Dir Waves Ship Positions

Zim Rio Grande

Last reported at 2016-Dec-01 04:27 UTC. Time now 2016-Dec-02 22:17 UTC.
Position N 31°51' E 034°38'.

Length 260 m; draft 12.1 m.

Type: Cargo ship. MMSI: 249253000.

Date/timePositionNaut miles runAvg speedWind from/ knotsBaromVisibWave heightAir tempDewpointWater temp
2016-Dec-01 04:27N 31°51' E 034°38'0 0.0
2016-Nov-30 04:15N 31°51' E 034°38'1 1.4
2016-Nov-30 03:33N 31°52' E 034°38'11 0.5
2016-Nov-29 08:07N 32°00' E 034°30'712.5
2016-Nov-29 07:33N 32°07' E 034°33'1212.3
2016-Nov-29 06:34N 32°19' E 034°37'1212.1
2016-Nov-29 05:33N 32°30' E 034°41'1212.3
2016-Nov-29 04:33N 32°42' E 034°45'1212.2
2016-Nov-29 03:34N 32°54' E 034°49'1111.2
2016-Nov-29 02:33N 32°50' E 035°01'1 1.2
2016-Nov-29 01:32N 32°49' E 035°01'0 0.0
2016-Nov-29 00:32N 32°49' E 035°01'0 0.0
2016-Nov-28 23:32N 32°49' E 035°01'0 0.0
2016-Nov-28 22:32N 32°49' E 035°01'0 0.0
2016-Nov-28 21:32N 32°49' E 035°01'0 0.0
2016-Nov-28 20:32N 32°49' E 035°01'0 0.0
2016-Nov-28 19:32N 32°49' E 035°01'0 0.0
2016-Nov-28 18:32N 32°49' E 035°01'0 0.0
2016-Nov-28 17:32N 32°49' E 035°01'0 0.0
2016-Nov-28 16:32N 32°49' E 035°01'0 0.0
2016-Nov-28 15:32N 32°49' E 035°01'0 0.0
2016-Nov-28 14:32N 32°49' E 035°01'0 0.0
2016-Nov-28 13:32N 32°49' E 035°01'0 0.0
2016-Nov-28 12:32N 32°49' E 035°01'0 0.0
2016-Nov-28 11:32N 32°49' E 035°01'0 0.0
2016-Nov-28 10:32N 32°49' E 035°01'0 0.0
2016-Nov-28 09:32N 32°49' E 035°01'0 0.0
2016-Nov-28 08:32N 32°49' E 035°01'0 0.0
2016-Nov-28 07:32N 32°49' E 035°01'0 0.0
2016-Nov-28 06:32N 32°49' E 035°01'0 0.3
2016-Nov-28 05:33N 32°49' E 035°01'2 2.2
2016-Nov-28 04:33N 32°51' E 034°60'10 9.9
2016-Nov-28 03:33N 32°53' E 034°48'  

Dump ship's entire track history